Time;durP1;ratioP1;P1;durP2;ratioP2;P2;SDS_P1;SDS_P2;PMS_P1;PMS_P2;Temp;Humidity;BMP_temperature;BMP_pressure;BME280_temperature;BME280_humidity;BME280_pressure;Samples;Min_cycle;Max_cycle;Signal;HPM_P1;HPM_P2
2022/05/12 00:00:09;;;;;;;0.80;0.63;;;;;;;32.64;18.55;97896.31;5067045;28;20031;-80
2022/05/12 00:02:36;;;;;;;;;;;;;;;32.43;19.31;97900.38;5069525;28;20032;-80
2022/05/12 00:05:04;;;;;;;1.27;0.80;;;;;;;32.47;18.69;97895.25;5066622;28;19908;-80
2022/05/12 00:07:30;;;;;;;0.50;0.50;;;;;;;32.52;18.58;97896.66;5067539;28;20038;-80
2022/05/12 00:09:56;;;;;;;1.15;0.77;;;;;;;32.59;18.45;97894.16;5066439;28;20101;-79
2022/05/12 00:12:23;;;;;;;0.80;0.70;;;;;;;32.45;18.63;97899.88;5064073;28;20029;-79
2022/05/12 00:14:49;;;;;;;0.82;0.82;;;;;;;32.33;19.07;97896.09;5067726;28;20127;-79
2022/05/12 00:17:15;;;;;;;1.38;0.80;;;;;;;32.21;19.18;97894.38;5067927;28;20034;-79
2022/05/12 00:19:42;;;;;;;0.82;0.80;;;;;;;32.25;19.28;97894.19;5067891;28;20127;-79
2022/05/12 00:22:08;;;;;;;0.70;0.70;;;;;;;32.28;19.20;97884.66;5065972;28;20041;-79
2022/05/12 00:24:34;;;;;;;1.23;0.82;;;;;;;32.31;19.11;97889.34;5065518;28;20036;-79
2022/05/12 00:27:00;;;;;;;2.78;0.73;;;;;;;32.25;19.30;97882.81;5066602;28;20040;-79
2022/05/12 00:29:26;;;;;;;1.95;0.60;;;;;;;32.15;19.18;97884.19;5065890;28;20044;-79
2022/05/12 00:31:52;;;;;;;1.85;0.68;;;;;;;32.23;18.87;97874.00;5068628;28;20040;-79
2022/05/12 00:34:20;;;;;;;0.75;0.70;;;;;;;32.15;19.11;97878.53;5063991;28;20161;-79
2022/05/12 00:36:47;;;;;;;0.60;0.60;;;;;;;32.16;18.89;97880.09;5066697;28;20033;-79
2022/05/12 00:39:14;;;;;;;0.43;0.43;;;;;;;32.18;18.71;97874.69;5066429;28;20497;-79
2022/05/12 00:41:41;;;;;;;1.02;0.93;;;;;;;32.24;18.87;97878.41;5067354;28;20028;-79
2022/05/12 00:44:10;;;;;;;4.13;0.70;;;;;;;32.36;18.88;97885.81;5065877;28;20055;-78
2022/05/12 00:46:41;;;;;;;1.08;0.50;;;;;;;32.42;18.31;97876.06;5066318;28;20398;-79
2022/05/12 00:49:24;;;;;;;0.85;0.70;;;;;;;32.32;18.34;97873.88;5066234;28;20381;-78
2022/05/12 00:51:56;;;;;;;1.20;0.60;;;;;;;32.32;18.70;97863.28;5050526;28;20073;-79
2022/05/12 00:54:31;;;;;;;2.50;0.60;;;;;;;32.22;18.66;97869.59;5066458;28;20039;-79
2022/05/12 00:56:59;;;;;;;0.70;0.70;;;;;;;32.18;19.02;97871.88;5066905;28;20028;-79
2022/05/12 00:59:33;;;;;;;3.05;0.77;;;;;;;32.11;18.75;97867.38;5068310;28;20036;-79
2022/05/12 01:02:02;;;;;;;0.88;0.85;;;;;;;32.15;18.80;97864.31;5067134;28;20378;-79
2022/05/12 01:04:31;;;;;;;0.80;0.52;;;;;;;32.16;18.57;97875.19;5068894;28;20363;-79
2022/05/12 01:06:58;;;;;;;0.85;0.80;;;;;;;32.21;18.75;97868.03;5068565;28;20020;-79
2022/05/12 01:09:30;;;;;;;0.60;0.60;;;;;;;32.08;18.60;97876.88;5066833;28;20029;-78
2022/05/12 01:11:56;;;;;;;0.82;0.52;;;;;;;32.00;18.71;97870.03;5065857;28;20025;-79
2022/05/12 01:14:23;;;;;;;0.70;0.70;;;;;;;32.01;18.65;97878.06;5064913;28;20056;-80
2022/05/12 01:16:59;;;;;;;1.50;0.60;;;;;;;32.00;18.63;97873.66;5069063;28;20505;-80
2022/05/12 01:19:31;;;;;;;1.40;0.60;;;;;;;32.06;18.53;97870.91;5071413;28;20486;-79
2022/05/12 01:21:58;;;;;;;1.25;0.60;;;;;;;31.99;18.80;97872.13;5074731;28;20040;-80
2022/05/12 01:24:37;;;;;;;0.68;0.65;;;;;;;31.99;18.52;97872.13;5073483;28;20035;-79
2022/05/12 01:27:19;;;;;;;0.60;0.60;;;;;;;31.99;18.47;97868.47;5077925;28;20055;-79
2022/05/12 01:29:54;;;;;;;1.15;0.70;;;;;;;32.01;18.34;97868.78;5069471;28;20032;-80
2022/05/12 01:32:23;;;;;;;0.60;0.60;;;;;;;32.10;18.39;97865.81;5069455;28;20509;-80
2022/05/12 01:34:49;;;;;;;0.98;0.90;;;;;;;32.09;18.85;97862.16;5073017;28;20036;-81
2022/05/12 01:37:15;;;;;;;0.57;0.57;;;;;;;32.17;18.45;97858.91;5072102;28;20446;-80
2022/05/12 01:39:41;;;;;;;0.50;0.50;;;;;;;32.17;18.18;97858.91;5071019;28;20025;-80
2022/05/12 01:42:09;;;;;;;0.60;0.60;;;;;;;32.09;18.32;97858.56;5052857;28;20046;-81
2022/05/12 01:44:36;;;;;;;0.60;0.60;;;;;;;32.10;18.42;97854.44;5068834;28;20032;-81
2022/05/12 01:47:04;;;;;;;0.70;0.70;;;;;;;32.17;18.10;97858.91;5068935;28;20025;-81
2022/05/12 01:49:31;;;;;;;0.90;0.60;;;;;;;32.05;18.30;97855.13;5071248;28;20024;-79
2022/05/12 01:51:59;;;;;;;0.63;0.63;;;;;;;31.99;18.67;97849.38;5070824;28;20039;-80
2022/05/12 01:54:27;;;;;;;0.43;0.43;;;;;;;31.84;18.66;97853.50;5066448;28;20438;-80
2022/05/12 01:56:53;;;;;;;3.83;0.68;;;;;;;31.76;18.64;97855.97;5069278;28;20043;-80
2022/05/12 01:59:20;;;;;;;0.75;0.60;;;;;;;31.85;18.78;97850.19;5069981;28;20490;-80
2022/05/12 02:01:47;;;;;;;0.65;0.65;;;;;;;31.82;18.91;97851.16;5071276;28;20047;-80
2022/05/12 02:04:13;;;;;;;1.23;0.60;;;;;;;31.80;18.80;97845.19;5070435;28;20047;-80
2022/05/12 02:06:40;;;;;;;1.55;0.90;;;;;;;31.80;18.78;97848.03;5067330;28;20512;-80
2022/05/12 02:09:07;;;;;;;3.00;0.60;;;;;;;31.72;18.40;97848.91;5067636;28;20039;-80
2022/05/12 02:11:34;;;;;;;0.75;0.65;;;;;;;31.85;18.30;97847.34;5069805;28;20028;-80
2022/05/12 02:14:00;;;;;;;0.60;0.60;;;;;;;32.06;18.11;97843.28;5071441;28;20052;-80
2022/05/12 02:16:27;;;;;;;0.68;0.60;;;;;;;32.20;18.02;97850.19;5067517;28;20551;-80
2022/05/12 02:18:54;;;;;;;1.15;0.75;;;;;;;32.17;18.19;97853.22;5069267;28;20067;-80
2022/05/12 02:21:21;;;;;;;1.00;0.75;;;;;;;32.07;18.56;97850.53;5068086;28;20108;-82
2022/05/12 02:23:47;;;;;;;0.60;0.60;;;;;;;31.91;18.76;97848.19;5051407;28;21555;-80
2022/05/12 02:26:13;;;;;;;0.75;0.70;;;;;;;32.00;18.85;97848.09;5070433;28;20032;-80
2022/05/12 02:28:39;;;;;;;0.80;0.75;;;;;;;31.85;18.92;97838.81;5067824;28;20028;-80
2022/05/12 02:31:05;;;;;;;0.88;0.77;;;;;;;31.79;18.70;97837.94;5068518;28;20040;-79
2022/05/12 02:33:31;;;;;;;0.50;0.50;;;;;;;31.40;19.20;97840.13;5067640;28;20413;-79
2022/05/12 02:35:57;;;;;;;0.60;0.60;;;;;;;31.34;19.43;97839.22;5071194;28;20048;-80
2022/05/12 02:38:24;;;;;;;0.93;0.43;;;;;;;31.34;19.16;97844.13;5073286;28;20115;-80
2022/05/12 02:40:50;;;;;;;1.40;0.55;;;;;;;31.34;19.13;97844.91;5070110;28;20479;-79
2022/05/12 02:43:25;;;;;;;0.73;0.60;;;;;;;31.22;19.33;97843.16;5054363;28;20021;-80
2022/05/12 02:45:57;;;;;;;0.45;0.40;;;;;;;31.26;19.00;97834.44;5067462;28;20039;-79
2022/05/12 02:48:27;;;;;;;0.70;0.52;;;;;;;31.42;19.00;97839.63;5067645;28;20099;-79
2022/05/12 02:50:54;;;;;;;0.77;0.77;;;;;;;31.57;18.82;97845.31;5070112;28;20551;-79
2022/05/12 02:53:20;;;;;;;0.57;0.52;;;;;;;31.60;18.98;97850.03;5067132;28;20131;-79
2022/05/12 02:55:46;;;;;;;3.90;0.60;;;;;;;31.59;18.74;97839.94;5051471;28;20079;-80
2022/05/12 02:58:13;;;;;;;0.98;0.60;;;;;;;31.51;18.83;97852.97;5068586;28;20107;-80
2022/05/12 03:00:40;;;;;;;0.50;0.50;;;;;;;31.37;19.30;97840.31;5066540;28;20047;-80
2022/05/12 03:03:07;;;;;;;2.00;0.50;;;;;;;31.28;19.09;97863.09;5069397;28;20028;-80
2022/05/12 03:05:35;;;;;;;0.63;0.63;;;;;;;31.53;18.90;97844.75;5067353;28;20043;-80
2022/05/12 03:08:01;;;;;;;0.80;0.80;;;;;;;31.52;18.87;97846.00;5051185;28;20029;-79
2022/05/12 03:10:27;;;;;;;0.80;0.77;;;;;;;31.23;19.55;97839.03;5067154;28;20064;-80
2022/05/12 03:12:53;;;;;;;0.88;0.80;;;;;;;31.13;19.33;97845.31;5068918;28;20489;-79
2022/05/12 03:15:20;;;;;;;0.73;0.73;;;;;;;31.38;19.20;97844.72;5068528;28;20056;-79
2022/05/12 03:17:46;;;;;;;1.48;0.70;;;;;;;31.52;18.86;97843.16;5067576;28;20047;-79
2022/05/12 03:20:16;;;;;;;0.65;0.65;;;;;;;31.80;18.72;97847.25;5066830;28;20124;-79
2022/05/12 03:22:42;;;;;;;0.90;0.70;;;;;;;32.25;18.21;97845.88;5066291;28;20052;-79
2022/05/12 03:25:10;;;;;;;1.60;0.80;;;;;;;32.43;17.76;97848.44;5051434;28;20047;-79
2022/05/12 03:27:37;;;;;;;1.20;0.60;;;;;;;32.71;18.12;97841.84;5065811;28;20552;-79
2022/05/12 03:30:07;;;;;;;0.75;0.60;;;;;;;32.69;18.45;97844.41;5066600;28;20454;-79
2022/05/12 03:32:33;;;;;;;1.45;0.70;;;;;;;32.62;18.55;97844.84;5065507;28;20466;-79
2022/05/12 03:34:59;;;;;;;0.70;0.70;;;;;;;32.67;18.42;97843.34;5068395;28;20032;-79
2022/05/12 03:37:26;;;;;;;0.60;0.60;;;;;;;32.74;17.91;97848.59;5067304;28;20367;-79
2022/05/12 03:39:52;;;;;;;1.70;0.60;;;;;;;32.81;18.05;97848.19;5054834;28;20128;-79
2022/05/12 03:42:19;;;;;;;1.38;0.75;;;;;;;32.85;17.84;97845.09;5066269;28;20046;-80
2022/05/12 03:44:54;;;;;;;0.85;0.75;;;;;;;32.90;18.20;97848.03;5062763;28;20024;-79
2022/05/12 03:47:24;;;;;;;1.27;0.75;;;;;;;33.28;17.45;97844.81;5070387;28;20048;-79
2022/05/12 03:50:03;;;;;;;1.00;1.00;;;;;;;33.47;17.88;97847.31;5068273;28;20070;-79
2022/05/12 03:52:30;;;;;;;0.90;0.70;;;;;;;33.86;17.52;97851.28;5068233;28;20382;-79
2022/05/12 03:54:57;;;;;;;0.52;0.52;;;;;;;34.39;17.17;97842.06;5065452;28;20032;-79
2022/05/12 03:57:24;;;;;;;1.00;0.80;;;;;;;35.07;17.14;97841.84;5064351;28;20043;-79
2022/05/12 03:59:51;;;;;;;0.77;0.70;;;;;;;35.62;16.73;97844.78;5066941;28;20378;-79
2022/05/12 04:02:19;;;;;;;3.53;2.03;;;;;;;35.99;15.72;97835.97;5048925;28;20043;-80
2022/05/12 04:04:46;;;;;;;1.13;0.88;;;;;;;36.29;16.13;97841.91;5066704;28;20121;-79
2022/05/12 04:07:15;;;;;;;2.05;0.60;;;;;;;36.49;15.92;97844.44;5067403;28;20040;-80
2022/05/12 04:09:41;;;;;;;0.68;0.60;;;;;;;36.44;15.91;97830.91;5068051;28;20048;-79
2022/05/12 04:12:11;;;;;;;2.15;0.80;;;;;;;36.59;16.24;97840.00;5049483;28;20375;-80
2022/05/12 04:14:39;;;;;;;0.55;0.55;;;;;;;36.81;16.26;97848.47;5064174;28;20040;-80
2022/05/12 04:17:07;;;;;;;0.52;0.50;;;;;;;37.10;16.18;97850.72;5070922;28;20031;-80
2022/05/12 04:19:33;;;;;;;0.52;0.52;;;;;;;37.36;15.88;97838.81;5051536;28;20035;-79
2022/05/12 04:21:59;;;;;;;0.95;0.50;;;;;;;37.58;17.08;97835.81;5064284;28;20116;-80
2022/05/12 04:24:25;;;;;;;0.50;0.50;;;;;;;37.80;15.94;97837.72;5062702;28;20067;-80
2022/05/12 04:26:51;;;;;;;0.57;0.57;;;;;;;38.15;16.06;97846.28;5067484;28;20040;-80
2022/05/12 04:29:17;;;;;;;0.45;0.45;;;;;;;38.18;16.02;97847.28;5065230;28;20037;-79
2022/05/12 04:31:43;;;;;;;0.65;0.60;;;;;;;38.14;16.19;97847.56;5065785;28;20115;-79
2022/05/12 04:36:54;;;;;;;0.82;0.70;;;;;;;38.15;15.94;97846.28;5063331;28;20712;-80
2022/05/12 04:39:20;;;;;;;0.65;0.63;;;;;;;38.08;14.97;97846.84;5064403;28;20040;-80
2022/05/12 04:41:46;;;;;;;3.60;0.68;;;;;;;38.37;15.23;97834.56;5062903;28;20032;-80
2022/05/12 04:44:15;;;;;;;0.50;0.50;;;;;;;38.52;14.64;97831.28;5064802;28;20472;-80
2022/05/12 04:46:42;;;;;;;0.55;0.50;;;;;;;38.54;15.30;97831.50;5069694;28;20029;-80
2022/05/12 04:49:10;;;;;;;2.17;0.80;;;;;;;38.28;15.78;97845.63;5066904;28;20035;-80
2022/05/12 04:51:37;;;;;;;0.40;0.40;;;;;;;38.63;15.06;97834.78;5070848;28;20024;-80
2022/05/12 04:54:06;;;;;;;0.85;0.52;;;;;;;38.83;14.98;97847.88;5070327;28;20043;-80
2022/05/12 04:56:32;;;;;;;1.30;0.40;;;;;;;38.93;15.04;97849.03;5072356;28;20546;-80
2022/05/12 04:58:58;;;;;;;1.20;0.70;;;;;;;38.60;15.57;97849.44;5073805;28;20478;-80
2022/05/12 05:01:24;;;;;;;2.70;0.50;;;;;;;38.73;15.00;97843.81;5072482;28;20498;-80
2022/05/12 05:03:50;;;;;;;1.70;0.50;;;;;;;38.74;15.40;97842.53;5068978;28;20028;-79
2022/05/12 05:06:16;;;;;;;2.40;0.70;;;;;;;38.92;15.68;97840.97;5069167;28;20043;-80
2022/05/12 05:08:43;;;;;;;0.73;0.60;;;;;;;39.21;14.82;97837.22;5071105;28;20378;-80
2022/05/12 05:11:09;;;;;;;1.15;0.50;;;;;;;39.01;15.35;97846.31;5070308;28;20082;-80
2022/05/12 05:13:35;;;;;;;1.10;0.52;;;;;;;38.96;15.16;97847.19;5069974;28;20091;-81
2022/05/12 05:16:02;;;;;;;0.60;0.60;;;;;;;38.66;15.53;97841.53;5054423;28;20494;-80
2022/05/12 05:18:28;;;;;;;0.65;0.40;;;;;;;38.67;16.16;97840.22;5068600;28;21504;-80
2022/05/12 05:20:54;;;;;;;1.55;1.00;;;;;;;38.88;15.11;97834.78;5071239;28;20033;-80
2022/05/12 05:23:21;;;;;;;1.50;0.50;;;;;;;38.99;15.69;97835.38;5071146;28;20040;-79
2022/05/12 05:25:48;;;;;;;2.47;0.40;;;;;;;39.23;15.58;97834.56;5071071;28;20383;-80
2022/05/12 05:28:14;;;;;;;0.40;0.40;;;;;;;39.43;15.42;97833.97;5070617;28;20031;-79
2022/05/12 05:30:41;;;;;;;0.40;0.40;;;;;;;39.55;14.97;97837.44;5069230;28;20037;-80
2022/05/12 05:33:08;;;;;;;0.70;0.60;;;;;;;39.33;15.19;97838.56;5069697;28;20032;-80
2022/05/12 05:35:34;;;;;;;0.43;0.43;;;;;;;39.22;15.09;97838.75;5067750;28;20032;-79
2022/05/12 05:38:01;;;;;;;0.95;0.50;;;;;;;39.13;14.68;97845.63;5070062;28;20165;-81
2022/05/12 05:40:28;;;;;;;2.05;0.50;;;;;;;39.41;15.34;97841.59;5071056;28;20036;-80
2022/05/12 05:42:56;;;;;;;0.70;0.60;;;;;;;39.24;14.78;97836.09;5073548;28;20032;-80
2022/05/12 05:45:23;;;;;;;1.05;0.40;;;;;;;39.28;15.19;97836.59;5072157;28;20082;-80
2022/05/12 05:47:57;;;;;;;2.10;0.40;;;;;;;38.83;15.52;97842.13;5070785;28;20035;-80
2022/05/12 05:50:27;;;;;;;0.60;0.60;;;;;;;39.01;14.89;97847.09;5073518;28;20032;-80
2022/05/12 05:55:39;;;;;;;4.13;0.95;;;;;;;38.74;15.60;97845.41;5072542;28;20055;-80
2022/05/12 05:58:06;;;;;;;1.10;0.80;;;;;;;38.80;15.38;97843.22;5069597;28;20099;-80
2022/05/12 06:00:33;;;;;;;1.10;0.73;;;;;;;38.55;14.69;97848.19;5071752;28;20033;-80
2022/05/12 06:02:59;;;;;;;1.08;0.98;;;;;;;38.42;16.15;97842.34;5070575;28;20114;-80
2022/05/12 06:05:27;;;;;;;0.75;0.75;;;;;;;38.44;15.03;97848.31;5073019;28;20115;-80
2022/05/12 06:07:54;;;;;;;0.88;0.88;;;;;;;38.40;15.08;97859.31;5070116;28;20031;-81
2022/05/12 06:10:20;;;;;;;0.90;0.90;;;;;;;37.95;15.09;97843.88;5069239;28;20489;-80
2022/05/12 06:12:48;;;;;;;1.90;0.85;;;;;;;38.10;16.34;97852.03;5070384;28;20078;-80
2022/05/12 06:15:15;;;;;;;1.77;0.90;;;;;;;38.29;15.22;97850.84;5072086;28;20437;-80
2022/05/12 06:17:41;;;;;;;5.60;0.80;;;;;;;38.12;16.11;97858.81;5072157;28;20044;-80
2022/05/12 06:20:10;;;;;;;2.55;1.00;;;;;;;38.02;15.59;97846.13;5053449;28;20063;-81
2022/05/12 06:22:37;;;;;;;1.83;0.90;;;;;;;38.21;15.82;97852.72;5070706;28;20020;-80
2022/05/12 06:25:07;;;;;;;1.00;0.90;;;;;;;38.08;15.51;97858.34;5073512;28;20040;-80
2022/05/12 06:27:34;;;;;;;3.80;1.25;;;;;;;37.92;15.86;97853.53;5073013;28;20060;-80
2022/05/12 06:30:01;;;;;;;1.42;1.00;;;;;;;38.08;15.64;97854.69;5072767;28;20517;-80
2022/05/12 06:32:28;;;;;;;3.20;1.10;;;;;;;38.02;15.46;97858.38;5069499;28;20029;-80
2022/05/12 06:34:54;;;;;;;2.53;0.90;;;;;;;38.56;15.11;97855.47;5071477;28;20033;-80
2022/05/12 06:37:21;;;;;;;3.15;1.40;;;;;;;38.63;15.84;97854.88;5071086;28;20028;-81
2022/05/12 06:39:47;;;;;;;1.27;0.90;;;;;;;38.65;14.54;97845.75;5071576;28;20036;-80
2022/05/12 06:42:13;;;;;;;2.58;1.05;;;;;;;38.94;14.98;97850.59;5071902;28;20521;-80
2022/05/12 06:44:42;;;;;;;2.05;0.80;;;;;;;39.21;15.07;97857.31;5067833;28;20098;-80
2022/05/12 06:47:09;;;;;;;3.05;0.90;;;;;;;39.17;15.26;97851.09;5071963;28;20028;-80
2022/05/12 06:49:35;;;;;;;1.42;0.80;;;;;;;39.10;14.78;97848.81;5072713;28;20058;-81
2022/05/12 06:52:06;;;;;;;1.10;1.00;;;;;;;39.26;15.05;97857.22;5071718;28;20107;-81
2022/05/12 06:54:36;;;;;;;2.13;1.00;;;;;;;39.11;14.93;97859.00;5053635;28;20421;-80
2022/05/12 06:57:04;;;;;;;1.25;1.15;;;;;;;39.36;14.57;97855.50;5072223;28;20028;-81
2022/05/12 06:59:30;;;;;;;4.00;1.00;;;;;;;39.48;15.99;97861.06;5071675;28;20054;-81
2022/05/12 07:01:56;;;;;;;2.03;1.20;;;;;;;39.09;15.24;97847.28;5070944;28;20042;-81
2022/05/12 07:04:29;;;;;;;1.08;0.90;;;;;;;39.30;16.42;97843.31;5072515;28;20036;-80
2022/05/12 07:06:55;;;;;;;0.80;0.80;;;;;;;39.26;14.84;97842.06;5070518;28;20047;-80
2022/05/12 07:09:21;;;;;;;0.70;0.70;;;;;;;39.42;15.40;97849.66;5071052;28;20029;-80
2022/05/12 07:11:47;;;;;;;1.42;1.30;;;;;;;39.50;15.07;97849.81;5069153;28;20041;-81
2022/05/12 07:14:14;;;;;;;2.25;1.55;;;;;;;39.61;15.00;97849.69;5061519;28;20521;-81
2022/05/12 07:16:42;;;;;;;0.80;0.80;;;;;;;39.51;14.62;97842.75;5070714;28;20032;-80
2022/05/12 07:19:08;;;;;;;1.00;0.93;;;;;;;39.37;15.28;97847.66;5071650;28;20390;-80
2022/05/12 07:27:03;;;;;;;0.90;0.90;;;;;;;38.86;14.92;97857.50;5071040;28;20117;-80
2022/05/12 07:29:34;;;;;;;3.85;0.90;;;;;;;38.66;14.49;97867.38;5071485;28;20486;-81
2022/05/12 07:32:00;;;;;;;1.85;0.95;;;;;;;38.47;15.13;97858.72;5069631;28;20028;-80
2022/05/12 07:34:26;;;;;;;2.20;1.15;;;;;;;38.65;14.66;97865.84;5070619;28;20098;-80
2022/05/12 07:36:53;;;;;;;1.15;1.05;;;;;;;39.08;14.71;97857.19;5071478;28;20032;-81
2022/05/12 07:39:23;;;;;;;1.77;1.00;;;;;;;38.78;14.68;97851.59;5071784;28;20029;-81
2022/05/12 07:41:49;;;;;;;0.93;0.82;;;;;;;39.11;15.16;97848.28;5070343;28;20032;-81
2022/05/12 07:44:18;;;;;;;1.13;0.80;;;;;;;39.24;14.79;97848.38;5071065;28;20032;-81
2022/05/12 07:46:45;;;;;;;1.02;0.70;;;;;;;39.38;14.15;97847.13;5072637;28;20074;-81
2022/05/12 07:49:12;;;;;;;0.75;0.70;;;;;;;39.29;14.76;97843.88;5072335;28;20113;-81
2022/05/12 07:51:38;;;;;;;4.25;0.90;;;;;;;39.01;14.76;97855.72;5067888;28;20111;-81
2022/05/12 07:54:04;;;;;;;1.10;0.90;;;;;;;38.60;14.55;97837.97;5072888;28;20040;-81
2022/05/12 07:56:31;;;;;;;2.58;0.95;;;;;;;38.72;14.10;97844.38;5073479;28;20517;-81
2022/05/12 07:58:59;;;;;;;0.90;0.90;;;;;;;39.15;13.71;97840.16;5073159;28;20028;-81
2022/05/12 08:01:26;;;;;;;2.65;0.77;;;;;;;38.96;14.26;97841.44;5070544;28;20067;-81
2022/05/12 08:03:54;;;;;;;1.55;0.80;;;;;;;38.87;14.45;97839.72;5072668;28;20043;-81
2022/05/12 08:06:20;;;;;;;2.05;0.85;;;;;;;38.97;14.39;97845.88;5071756;28;20393;-81
2022/05/12 08:08:48;;;;;;;0.73;0.73;;;;;;;39.30;13.70;97834.69;5073076;28;20032;-81
2022/05/12 08:11:15;;;;;;;2.53;0.80;;;;;;;39.53;13.80;97843.75;5072256;28;20032;-81
2022/05/12 08:13:46;;;;;;;3.90;1.10;;;;;;;38.94;13.97;97833.38;5072985;28;20048;-81
2022/05/12 08:16:15;;;;;;;0.93;0.82;;;;;;;38.68;14.47;97845.41;5073359;28;20044;-81
2022/05/12 08:18:42;;;;;;;0.73;0.60;;;;;;;39.08;13.86;97837.88;5072839;28;20098;-81
2022/05/12 08:21:09;;;;;;;1.83;0.80;;;;;;;39.21;13.69;97849.44;5072342;28;20028;-82
2022/05/12 08:23:35;;;;;;;0.65;0.65;;;;;;;39.70;13.71;97841.41;5072365;28;20059;-81
2022/05/12 08:26:02;;;;;;;1.98;0.70;;;;;;;39.43;13.30;97848.34;5071475;28;20044;-81
2022/05/12 08:28:28;;;;;;;1.13;0.73;;;;;;;39.90;13.64;97848.66;5072757;28;20032;-81
2022/05/12 08:30:55;;;;;;;1.95;1.25;;;;;;;39.85;13.72;97835.13;5072355;28;20024;-81
2022/05/12 08:33:22;;;;;;;2.38;0.70;;;;;;;39.68;13.63;97840.38;5045719;28;20037;-81
2022/05/12 08:35:48;;;;;;;2.42;0.80;;;;;;;39.68;12.87;97846.91;5071820;28;20127;-82
2022/05/12 08:38:16;;;;;;;4.43;0.90;;;;;;;39.38;13.96;97846.34;5071833;28;20036;-82
2022/05/12 08:41:04;;;;;;;2.90;0.95;;;;;;;38.72;14.25;97832.91;5072611;28;20436;-81
2022/05/12 08:43:45;;;;;;;6.13;1.17;;;;;;;37.89;14.61;97854.59;5051244;28;20041;-81
2022/05/12 08:46:33;;;;;;;2.47;0.82;;;;;;;38.59;14.01;97847.88;5059940;28;20111;-81
2022/05/12 08:49:18;;;;;;;10.00;1.17;;;;;;;37.93;14.99;97855.06;5072813;28;20104;-81
2022/05/12 08:51:47;;;;;;;0.73;0.73;;;;;;;38.15;15.76;97866.34;5069222;28;20055;-81
2022/05/12 08:54:18;;;;;;;8.27;1.25;;;;;;;37.84;15.52;97876.28;5072017;28;20131;-81
2022/05/12 08:56:44;;;;;;;4.45;1.00;;;;;;;37.92;15.36;97871.53;5072860;28;20032;-81
2022/05/12 08:59:10;;;;;;;3.38;1.00;;;;;;;37.64;16.19;97862.34;5072314;28;20028;-81
2022/05/12 09:02:10;;;;;;;1.33;0.93;;;;;;;38.63;15.08;97872.09;5070527;28;20382;-81
2022/05/12 09:05:11;;;;;;;2.17;1.27;;;;;;;38.34;15.39;97869.31;5072055;28;20040;-82
2022/05/12 09:07:54;;;;;;;6.63;1.23;;;;;;;37.92;15.24;97865.00;5072572;28;20398;-81
2022/05/12 09:10:38;;;;;;;1.60;1.20;;;;;;;37.82;16.47;97864.56;5072371;28;20071;-81
2022/05/12 09:13:26;;;;;;;1.83;1.10;;;;;;;37.20;16.16;97854.03;5052834;28;20131;-81
2022/05/12 09:16:13;;;;;;;3.58;1.52;;;;;;;36.35;16.64;97860.59;5072402;28;20036;-81
2022/05/12 09:18:40;;;;;;;13.30;1.80;;;;;;;36.59;17.23;97872.25;5072423;28;20494;-80
2022/05/12 09:21:12;;;;;;;7.95;1.85;;;;;;;36.97;16.77;97867.69;5054522;28;20478;-80
2022/05/12 09:23:38;;;;;;;2.65;1.45;;;;;;;37.01;16.70;97868.19;5072343;28;20124;-80
2022/05/12 09:26:41;;;;;;;7.95;2.05;;;;;;;36.99;16.35;97862.22;5072314;28;20072;-80
2022/05/12 09:29:23;;;;;;;4.78;1.40;;;;;;;37.61;16.45;97879.81;5072362;28;20109;-80
2022/05/12 09:32:17;;;;;;;6.57;1.70;;;;;;;38.52;15.51;97882.94;5070710;28;20039;-80
2022/05/12 09:34:46;;;;;;;5.13;1.38;;;;;;;38.75;15.50;97877.72;5058934;28;20056;-80
2022/05/12 09:37:21;;;;;;;4.13;1.00;;;;;;;37.99;15.58;97875.88;5071198;28;20035;-80
2022/05/12 09:39:53;;;;;;;3.35;1.52;;;;;;;37.34;16.08;97885.16;5071394;28;20031;-80
2022/05/12 09:42:42;;;;;;;4.03;1.20;;;;;;;37.09;16.39;97868.41;5072411;28;20038;-81
2022/05/12 09:45:23;;;;;;;3.72;1.30;;;;;;;37.48;15.96;97888.25;5054398;28;20040;-81
2022/05/12 09:47:49;;;;;;;2.75;1.00;;;;;;;37.73;15.78;97881.28;5075818;28;20047;-80
2022/05/12 09:50:25;;;;;;;1.63;1.25;;;;;;;38.40;16.22;97864.28;5075424;28;20029;-80
2022/05/12 09:52:54;;;;;;;1.00;0.90;;;;;;;38.02;15.61;97875.56;5074621;28;20036;-80
2022/05/12 09:55:28;;;;;;;1.10;1.00;;;;;;;38.46;15.44;97871.50;5075403;28;20121;-81
2022/05/12 09:58:03;;;;;;;3.40;1.15;;;;;;;39.00;15.06;97876.38;5075786;28;20406;-80
2022/05/12 10:00:42;;;;;;;2.35;1.02;;;;;;;38.63;14.64;97879.91;5074742;28;20041;-81
2022/05/12 10:09:16;;;;;;;4.82;1.13;;;;;;;38.26;15.22;97879.78;5024327;28;20125;-81
2022/05/12 10:11:51;;;;;;;1.70;1.08;;;;;;;38.44;15.07;97891.34;5050660;28;20090;-81
2022/05/12 10:14:35;;;;;;;1.70;1.30;;;;;;;38.83;14.60;97881.56;5075065;28;20371;-81
2022/05/12 10:17:09;;;;;;;2.35;1.02;;;;;;;38.09;15.01;97882.81;5074606;28;20044;-81
2022/05/12 10:19:37;;;;;;;1.88;0.93;;;;;;;38.17;14.57;97883.00;5075108;28;20111;-81
2022/05/12 10:22:28;;;;;;;1.48;1.05;;;;;;;38.17;14.75;97880.13;5074111;28;20470;-81
2022/05/12 10:25:03;;;;;;;1.67;0.85;;;;;;;38.26;14.58;97871.19;5074787;28;20033;-81
2022/05/12 10:27:35;;;;;;;2.42;0.70;;;;;;;37.72;15.06;97880.50;5074628;28;20398;-81
2022/05/12 10:30:33;;;;;;;2.03;0.90;;;;;;;37.51;14.54;97881.47;5058311;28;20039;-81
2022/05/12 10:33:05;;;;;;;1.55;0.73;;;;;;;37.82;14.33;97881.75;5066478;28;20086;-81
2022/05/12 10:35:41;;;;;;;0.80;0.80;;;;;;;37.73;14.98;97884.16;5074780;28;20072;-81
2022/05/12 10:38:09;;;;;;;3.28;1.10;;;;;;;38.22;14.12;97885.81;5074753;28;20490;-81
2022/05/12 10:40:54;;;;;;;3.28;0.82;;;;;;;38.25;14.50;97890.50;5073498;28;20031;-81
2022/05/12 10:43:39;;;;;;;4.95;1.00;;;;;;;37.99;15.11;97905.34;5073408;28;20032;-81
2022/05/12 10:46:30;;;;;;;5.43;1.00;;;;;;;37.11;14.99;97898.06;5074753;28;20051;-81
2022/05/12 10:49:09;;;;;;;8.05;1.30;;;;;;;36.92;14.40;97902.06;5073691;28;20512;-81
2022/05/12 10:51:53;;;;;;;4.28;1.10;;;;;;;35.92;15.28;97896.47;5073300;28;20525;-82
2022/05/12 10:54:33;;;;;;;8.00;1.17;;;;;;;36.60;15.23;97904.47;5072756;28;20195;-81
2022/05/12 10:57:37;;;;;;;1.92;0.98;;;;;;;37.44;14.44;97916.41;5053370;28;20394;-81
2022/05/12 11:00:18;;;;;;;3.83;1.35;;;;;;;36.98;14.48;97917.13;5054761;28;20485;-81
2022/05/12 11:02:52;;;;;;;5.63;1.10;;;;;;;36.50;14.74;97917.53;5063920;28;20067;-81
2022/05/12 11:05:21;;;;;;;7.40;1.10;;;;;;;36.86;14.80;97913.50;5073890;28;20060;-81
2022/05/12 11:08:14;;;;;;;2.15;1.10;;;;;;;37.12;14.79;97898.84;5073842;28;20497;-81
2022/05/12 11:10:52;;;;;;;1.40;1.00;;;;;;;38.15;14.65;97905.72;5074435;28;20087;-81
2022/05/12 11:13:24;;;;;;;2.80;1.10;;;;;;;37.57;14.41;97913.72;5054157;28;20132;-81
2022/05/12 11:16:03;;;;;;;3.28;1.30;;;;;;;37.68;14.12;97896.44;5073428;28;20040;-81
2022/05/12 11:18:35;;;;;;;3.77;1.20;;;;;;;37.39;15.08;97918.75;5073144;28;20033;-81
2022/05/12 11:21:27;;;;;;;8.70;1.73;;;;;;;36.79;15.35;97908.34;5072046;28;20356;-81
2022/05/12 11:24:24;;;;;;;6.28;1.40;;;;;;;37.34;15.09;97907.31;5054219;28;20498;-81
2022/05/12 11:27:09;;;;;;;1.85;1.55;;;;;;;37.32;15.03;97896.38;5073403;28;20032;-81
2022/05/12 11:29:51;;;;;;;2.75;1.80;;;;;;;37.24;15.75;97908.94;5073529;28;20033;-81
2022/05/12 11:32:37;;;;;;;6.25;1.25;;;;;;;37.44;15.13;97893.50;5072704;28;20040;-81
2022/05/12 11:35:27;;;;;;;4.00;1.23;;;;;;;37.43;15.17;97897.66;5073573;28;20048;-81
2022/05/12 11:38:00;;;;;;;1.48;1.35;;;;;;;37.69;15.00;97907.38;5058425;28;20079;-81
2022/05/12 11:40:55;;;;;;;2.75;1.50;;;;;;;38.20;15.07;97905.66;5072072;28;20032;-82
2022/05/12 11:47:07;;;;;;;2.85;1.33;;;;;;;37.86;14.74;97898.66;5073196;28;20136;-81
2022/05/12 11:50:01;;;;;;;1.90;1.25;;;;;;;38.12;14.71;97912.50;5073690;28;20043;-79
2022/05/12 11:52:39;;;;;;;3.80;1.40;;;;;;;37.46;15.20;97905.19;5072138;28;20044;-79
2022/05/12 11:55:33;;;;;;;7.30;1.67;;;;;;;37.77;14.77;97908.34;5072592;28;20068;-79
2022/05/12 11:58:13;;;;;;;4.07;1.50;;;;;;;37.77;15.82;97913.28;5070686;28;20500;-79
2022/05/12 12:00:43;;;;;;;6.35;1.23;;;;;;;38.35;15.14;97911.00;5073702;28;20036;-80
2022/05/12 12:03:18;;;;;;;;;;;;;;;38.09;14.98;97897.16;5072293;28;20052;-78
2022/05/12 12:05:50;;;;;;;2.05;1.35;;;;;;;38.39;14.98;97915.16;5072087;28;19916;-79
2022/05/12 12:08:38;;;;;;;1.40;1.30;;;;;;;37.80;15.17;97906.50;5073370;28;20457;-78
2022/05/12 12:11:14;;;;;;;1.45;1.30;;;;;;;37.68;15.85;97920.16;5072648;28;20028;-78